Time;durP1;ratioP1;P1;durP2;ratioP2;P2;SDS_P1;SDS_P2;PMS_P1;PMS_P2;Temp;Humidity;BMP_temperature;BMP_pressure;BME280_temperature;BME280_humidity;BME280_pressure;Samples;Min_cycle;Max_cycle;Signal;HPM_P1;HPM_P2
2023/05/18 00:01:39;;;;;;;13.30;6.10;;;7.50;99.90;;;;;;5007599;28;20045;-67
2023/05/18 00:04:07;;;;;;;10.95;5.88;;;7.50;99.90;;;;;;5004792;28;20060;-66
2023/05/18 00:06:35;;;;;;;18.70;6.40;;;7.40;99.90;;;;;;5003679;28;20266;-66
2023/05/18 00:09:02;;;;;;;10.73;6.10;;;7.40;99.90;;;;;;5028331;28;20481;-66
2023/05/18 00:11:31;;;;;;;12.68;6.10;;;7.30;99.90;;;;;;5004959;28;20050;-67
2023/05/18 00:13:58;;;;;;;11.23;5.72;;;7.20;99.90;;;;;;4992307;28;20473;-67
2023/05/18 00:16:26;;;;;;;10.85;6.20;;;7.20;99.90;;;;;;5023386;28;20137;-67
2023/05/18 00:18:53;;;;;;;11.43;6.38;;;7.10;99.90;;;;;;5028327;28;20060;-67
2023/05/18 00:21:21;;;;;;;13.23;6.90;;;7.10;99.90;;;;;;5012903;28;20123;-66
2023/05/18 00:23:49;;;;;;;11.95;6.38;;;7.10;99.90;;;;;;5002650;28;20117;-67
2023/05/18 00:26:16;;;;;;;10.50;6.07;;;7.00;99.90;;;;;;5012265;28;20056;-66
2023/05/18 00:28:45;;;;;;;14.10;6.50;;;7.00;99.90;;;;;;5006027;28;20062;-66
2023/05/18 00:31:13;;;;;;;9.30;6.18;;;7.00;99.90;;;;;;5008865;28;20516;-65
2023/05/18 00:33:40;;;;;;;11.52;6.47;;;7.00;99.90;;;;;;5006431;28;20596;-65
2023/05/18 00:36:07;;;;;;;13.43;6.88;;;6.90;99.90;;;;;;5011919;28;20112;-65
2023/05/18 00:38:35;;;;;;;10.88;6.53;;;6.90;99.90;;;;;;5024113;28;20041;-67
2023/05/18 00:41:02;;;;;;;13.70;7.32;;;6.90;99.90;;;;;;5027304;28;20052;-67
2023/05/18 00:43:29;;;;;;;10.48;6.15;;;6.80;99.90;;;;;;5022142;28;20406;-67
2023/05/18 00:45:57;;;;;;;14.13;6.60;;;6.80;99.90;;;;;;5027243;28;20041;-67
2023/05/18 00:48:29;;;;;;;18.42;7.07;;;6.80;99.90;;;;;;5028673;28;20046;-66
2023/05/18 00:51:03;;;;;;;11.57;6.65;;;6.80;99.90;;;;;;4993267;28;20156;-66
2023/05/18 00:53:32;;;;;;;12.90;6.32;;;6.80;99.90;;;;;;5024987;28;20110;-66
2023/05/18 00:55:59;;;;;;;13.55;6.55;;;6.70;99.90;;;;;;5005821;28;20558;-67
2023/05/18 00:58:27;;;;;;;11.20;6.10;;;6.70;99.90;;;;;;5025222;28;20050;-66
2023/05/18 01:00:56;;;;;;;10.82;6.18;;;6.70;99.90;;;;;;5014936;28;20096;-66
2023/05/18 01:03:25;;;;;;;11.63;6.70;;;6.70;99.90;;;;;;5014115;28;20067;-66
2023/05/18 01:05:57;;;;;;;12.25;6.63;;;6.70;99.90;;;;;;5010470;28;20042;-66
2023/05/18 01:08:26;;;;;;;12.55;7.03;;;6.70;99.90;;;;;;5005865;28;20419;-66
2023/05/18 01:11:13;;;;;;;11.00;6.80;;;6.70;99.90;;;;;;5002524;28;20472;-66
2023/05/18 01:14:03;;;;;;;10.13;6.53;;;6.60;99.90;;;;;;5017297;28;20042;-66
2023/05/18 01:16:36;;;;;;;9.65;6.22;;;6.60;99.90;;;;;;5011381;28;20468;-66
2023/05/18 01:19:49;;;;;;;10.70;6.53;;;6.60;99.90;;;;;;5002873;28;20053;-66
2023/05/18 01:22:40;;;;;;;10.73;6.15;;;6.60;99.90;;;;;;4954145;28;20055;-66
2023/05/18 01:25:54;;;;;;;12.20;5.83;;;6.50;99.90;;;;;;4951930;28;20050;-66
2023/05/18 01:28:29;;;;;;;10.70;6.22;;;6.50;99.90;;;;;;4926781;28;20529;-66
2023/05/18 01:30:57;;;;;;;12.65;6.88;;;6.40;99.90;;;;;;4942909;28;20231;-66
2023/05/18 01:33:25;;;;;;;8.73;5.88;;;6.40;99.90;;;;;;4955638;28;20467;-66
2023/05/18 01:35:52;;;;;;;11.77;6.18;;;6.40;99.90;;;;;;4956308;28;20564;-66
2023/05/18 01:38:23;;;;;;;9.50;5.95;;;6.30;99.90;;;;;;4952353;28;20090;-66
2023/05/18 01:41:04;;;;;;;14.13;6.38;;;6.30;99.90;;;;;;4952334;28;20114;-66
2023/05/18 01:43:41;;;;;;;12.05;6.25;;;6.30;99.90;;;;;;4953581;28;20102;-66
2023/05/18 01:46:21;;;;;;;11.73;7.10;;;6.30;99.90;;;;;;4933824;28;20117;-66
2023/05/18 01:48:55;;;;;;;12.35;6.65;;;6.20;99.90;;;;;;4963522;28;20043;-66
2023/05/18 01:51:30;;;;;;;12.23;6.70;;;6.20;99.90;;;;;;4938688;28;20393;-66
2023/05/18 01:54:06;;;;;;;13.77;7.20;;;6.20;99.90;;;;;;4925564;29;20407;-66
2023/05/18 01:56:39;;;;;;;14.40;7.68;;;6.20;99.90;;;;;;4957618;28;20101;-66
2023/05/18 01:59:07;;;;;;;13.07;7.25;;;6.10;99.90;;;;;;4966936;28;20057;-65
2023/05/18 02:01:35;;;;;;;14.43;6.88;;;6.10;99.90;;;;;;5013256;28;20053;-65
2023/05/18 02:04:09;;;;;;;15.35;7.00;;;6.10;99.90;;;;;;5004176;28;20038;-66
2023/05/18 02:06:38;;;;;;;12.55;6.78;;;6.00;99.90;;;;;;4993716;28;20509;-65
2023/05/18 02:09:07;;;;;;;11.10;6.88;;;6.00;99.90;;;;;;4999676;28;20052;-65
2023/05/18 02:11:35;;;;;;;14.73;7.38;;;6.00;99.90;;;;;;5000888;28;20042;-65
2023/05/18 02:14:02;;;;;;;12.52;6.80;;;5.90;99.90;;;;;;5009163;28;20553;-65
2023/05/18 02:16:30;;;;;;;18.08;6.97;;;5.90;99.90;;;;;;4994927;28;20034;-66
2023/05/18 02:18:59;;;;;;;11.85;7.18;;;5.90;99.90;;;;;;4979820;28;20480;-66
2023/05/18 02:21:26;;;;;;;15.80;7.60;;;5.90;99.90;;;;;;4998813;28;20450;-65
2023/05/18 02:23:53;;;;;;;13.07;6.60;;;5.80;99.90;;;;;;5001456;28;20045;-66
2023/05/18 02:26:22;;;;;;;11.63;7.22;;;5.80;99.90;;;;;;4995744;28;20509;-66
2023/05/18 02:28:51;;;;;;;8.98;6.57;;;5.70;99.90;;;;;;5013006;28;20065;-67
2023/05/18 02:31:19;;;;;;;12.00;7.43;;;5.70;99.90;;;;;;5013624;28;20046;-65
2023/05/18 02:33:46;;;;;;;10.90;6.57;;;5.70;99.90;;;;;;5011986;28;20050;-65
2023/05/18 02:36:14;;;;;;;9.57;6.70;;;5.70;99.90;;;;;;5010522;28;20257;-65
2023/05/18 02:38:42;;;;;;;11.05;6.90;;;5.70;99.90;;;;;;4997205;28;20052;-67
2023/05/18 02:41:11;;;;;;;11.23;6.72;;;5.70;99.90;;;;;;4997120;28;20042;-65
2023/05/18 02:43:38;;;;;;;14.10;6.72;;;5.70;99.90;;;;;;5009536;28;20111;-63
2023/05/18 02:46:06;;;;;;;10.43;6.68;;;5.60;99.90;;;;;;4976708;28;20140;-66
2023/05/18 02:48:34;;;;;;;14.25;6.32;;;5.60;99.90;;;;;;4995598;28;20038;-66
2023/05/18 02:51:01;;;;;;;12.02;6.55;;;5.60;99.90;;;;;;5006076;28;20069;-66
2023/05/18 02:53:29;;;;;;;13.15;7.78;;;5.50;99.90;;;;;;4958253;28;20057;-66
2023/05/18 02:56:02;;;;;;;12.43;6.82;;;5.50;99.90;;;;;;4999192;28;20049;-66
2023/05/18 02:58:46;;;;;;;13.30;6.60;;;5.50;99.90;;;;;;4993500;28;20422;-66
2023/05/18 03:01:20;;;;;;;12.50;6.63;;;5.50;99.90;;;;;;4994397;28;20048;-67
2023/05/18 03:03:56;;;;;;;10.60;6.43;;;5.40;99.90;;;;;;4996476;28;20136;-67
2023/05/18 03:06:26;;;;;;;11.07;7.22;;;5.40;99.90;;;;;;5001615;28;20058;-66
2023/05/18 03:08:55;;;;;;;13.50;6.20;;;5.40;99.90;;;;;;4975806;28;20072;-66
2023/05/18 03:11:29;;;;;;;12.32;6.95;;;5.40;99.90;;;;;;4983832;28;20052;-67
2023/05/18 03:13:57;;;;;;;12.82;7.18;;;5.30;99.90;;;;;;5006897;28;20042;-67
2023/05/18 03:16:27;;;;;;;11.95;6.78;;;5.30;99.90;;;;;;4984470;28;20046;-67
2023/05/18 03:18:57;;;;;;;13.32;6.53;;;5.30;99.90;;;;;;4999726;28;20401;-66
2023/05/18 03:21:34;;;;;;;14.93;6.78;;;5.30;99.90;;;;;;4999365;28;20050;-65
2023/05/18 03:24:02;;;;;;;13.88;7.35;;;5.30;99.90;;;;;;4999853;28;20068;-66
2023/05/18 03:26:31;;;;;;;15.30;6.25;;;5.30;99.90;;;;;;4983259;28;20142;-66
2023/05/18 03:29:00;;;;;;;16.50;6.80;;;5.30;99.90;;;;;;4987455;28;20121;-66
2023/05/18 03:31:27;;;;;;;11.85;6.30;;;5.20;99.90;;;;;;4993436;28;20160;-66
2023/05/18 03:33:57;;;;;;;14.77;7.03;;;5.30;99.90;;;;;;5000137;28;20041;-66
2023/05/18 03:36:26;;;;;;;13.70;6.90;;;5.30;99.90;;;;;;5019908;28;20049;-64
2023/05/18 03:38:54;;;;;;;12.20;6.68;;;5.30;99.90;;;;;;5004724;28;20070;-66
2023/05/18 03:41:22;;;;;;;13.68;6.35;;;5.30;99.90;;;;;;5000063;28;20101;-64
2023/05/18 03:43:51;;;;;;;14.02;6.90;;;5.30;99.90;;;;;;4995853;28;20371;-65
2023/05/18 03:46:18;;;;;;;14.95;6.40;;;5.30;99.90;;;;;;4974235;28;20042;-65
2023/05/18 03:48:46;;;;;;;12.80;6.15;;;5.30;99.90;;;;;;4992300;28;20390;-67
2023/05/18 03:51:17;;;;;;;11.57;6.35;;;5.30;99.90;;;;;;4994949;28;20037;-66
2023/05/18 03:53:45;;;;;;;10.68;6.25;;;5.40;99.90;;;;;;4998182;28;20045;-66
2023/05/18 03:56:13;;;;;;;11.40;5.72;;;5.40;99.90;;;;;;4991529;28;20484;-66
2023/05/18 03:58:41;;;;;;;11.23;6.60;;;5.40;99.90;;;;;;4987674;28;20132;-66
2023/05/18 04:01:08;;;;;;;13.95;5.57;;;5.40;99.90;;;;;;5001741;28;20049;-66
2023/05/18 04:03:36;;;;;;;11.00;6.68;;;5.50;99.90;;;;;;5010985;28;20038;-66
2023/05/18 04:06:05;;;;;;;11.00;6.03;;;5.50;99.90;;;;;;5010470;28;20054;-66
2023/05/18 04:08:33;;;;;;;12.48;6.32;;;5.60;99.90;;;;;;5015420;28;20480;-66
2023/05/18 04:11:00;;;;;;;11.13;6.03;;;5.70;99.90;;;;;;5031630;28;20073;-66
2023/05/18 04:13:28;;;;;;;12.98;6.88;;;5.70;99.90;;;;;;5015765;28;20057;-66
2023/05/18 04:15:57;;;;;;;11.30;6.40;;;5.70;99.90;;;;;;5003968;28;20492;-66
2023/05/18 04:18:28;;;;;;;12.57;6.60;;;5.70;99.90;;;;;;5004505;28;20048;-65
2023/05/18 04:20:56;;;;;;;13.18;6.45;;;5.80;99.90;;;;;;5017002;28;20042;-65
2023/05/18 04:23:23;;;;;;;12.10;6.82;;;5.80;99.90;;;;;;5014002;28;20173;-66
2023/05/18 04:25:51;;;;;;;13.80;6.82;;;5.90;99.90;;;;;;5000247;28;20044;-66
2023/05/18 04:28:18;;;;;;;13.20;7.38;;;6.00;99.90;;;;;;5003012;28;20132;-67
2023/05/18 04:30:46;;;;;;;15.80;7.30;;;6.00;99.90;;;;;;5004230;28;20659;-66
2023/05/18 04:33:15;;;;;;;11.07;6.35;;;6.00;99.90;;;;;;5013902;28;20049;-66
2023/05/18 04:35:44;;;;;;;18.08;7.20;;;6.10;99.90;;;;;;4979407;28;20524;-66
2023/05/18 04:38:12;;;;;;;9.98;6.80;;;6.20;99.90;;;;;;4994326;28;20050;-65
2023/05/18 04:40:41;;;;;;;12.15;6.68;;;6.20;99.90;;;;;;5002226;28;20492;-66
2023/05/18 04:43:11;;;;;;;14.00;6.83;;;6.30;99.90;;;;;;4993728;28;20140;-66
2023/05/18 04:45:38;;;;;;;10.38;6.30;;;6.40;99.90;;;;;;4993515;28;20045;-66
2023/05/18 04:48:06;;;;;;;9.80;6.30;;;6.50;99.90;;;;;;4996552;28;20049;-66
2023/05/18 04:50:35;;;;;;;10.23;6.13;;;6.60;99.90;;;;;;5003208;28;20402;-66
2023/05/18 04:53:06;;;;;;;14.00;7.25;;;6.60;99.90;;;;;;5005564;28;20129;-66
2023/05/18 04:55:34;;;;;;;12.25;6.53;;;6.80;99.90;;;;;;5020908;28;20140;-66
2023/05/18 04:58:04;;;;;;;15.90;6.97;;;6.80;99.90;;;;;;5003167;28;20494;-66
2023/05/18 05:00:32;;;;;;;11.55;6.60;;;6.90;99.90;;;;;;4995169;28;20065;-66
2023/05/18 05:02:59;;;;;;;13.75;7.45;;;7.00;99.90;;;;;;5004832;28;20115;-66
2023/05/18 05:05:28;;;;;;;10.85;6.40;;;7.00;99.90;;;;;;4997122;28;20046;-66
2023/05/18 05:07:57;;;;;;;14.40;6.30;;;7.00;99.90;;;;;;5012098;28;20038;-66
2023/05/18 05:10:26;;;;;;;12.43;6.30;;;7.10;99.90;;;;;;4993887;28;20050;-65
2023/05/18 05:12:54;;;;;;;12.25;6.50;;;7.00;99.90;;;;;;5005931;28;20388;-65
2023/05/18 05:15:21;;;;;;;14.77;7.03;;;7.10;99.90;;;;;;5022282;28;20072;-67
2023/05/18 05:17:50;;;;;;;12.10;7.25;;;7.10;99.90;;;;;;5006936;28;20477;-67
2023/05/18 05:20:18;;;;;;;10.85;7.10;;;7.20;99.90;;;;;;5010817;28;20073;-66
2023/05/18 05:22:46;;;;;;;12.50;6.90;;;7.40;99.90;;;;;;4994263;28;20042;-66
2023/05/18 05:25:16;;;;;;;14.00;6.68;;;7.40;99.90;;;;;;4999466;28;20054;-65
2023/05/18 05:27:44;;;;;;;14.02;6.85;;;7.50;99.90;;;;;;5003263;28;20144;-66
2023/05/18 05:30:12;;;;;;;12.23;6.90;;;7.70;99.90;;;;;;4997422;28;20042;-66
2023/05/18 05:32:41;;;;;;;13.70;6.55;;;7.80;99.90;;;;;;4985814;28;20121;-66
2023/05/18 05:35:09;;;;;;;11.55;6.32;;;7.90;99.90;;;;;;4975270;28;20085;-66
2023/05/18 05:37:36;;;;;;;11.75;6.30;;;8.00;99.90;;;;;;5019483;28;20077;-67
2023/05/18 05:40:05;;;;;;;17.00;5.35;;;8.10;99.90;;;;;;5001011;28;20073;-67
2023/05/18 05:42:40;;;;;;;9.18;5.45;;;8.10;99.90;;;;;;5001966;28;20129;-67
2023/05/18 05:45:08;;;;;;;16.00;5.50;;;8.20;99.90;;;;;;4985886;28;20088;-67
2023/05/18 05:47:48;;;;;;;11.57;5.68;;;8.30;99.90;;;;;;4993777;28;20240;-66
2023/05/18 05:50:18;;;;;;;11.70;6.13;;;8.30;99.90;;;;;;4994324;28;20413;-66
2023/05/18 05:52:47;;;;;;;12.02;5.82;;;8.40;99.90;;;;;;4998331;28;20522;-66
2023/05/18 05:55:15;;;;;;;13.80;5.72;;;8.60;99.90;;;;;;5008203;28;20034;-67
2023/05/18 05:57:43;;;;;;;13.43;5.43;;;8.60;99.90;;;;;;5016522;28;20034;-67
2023/05/18 06:00:11;;;;;;;15.07;5.78;;;8.80;99.90;;;;;;4992918;28;20046;-66
2023/05/18 06:02:50;;;;;;;12.18;5.32;;;8.80;99.90;;;;;;4998894;28;20038;-67
2023/05/18 06:05:29;;;;;;;10.55;6.40;;;8.90;99.90;;;;;;5001371;28;20042;-66
2023/05/18 06:07:57;;;;;;;;;;;9.00;99.90;;;;;;4992504;28;20050;-66
2023/05/18 06:10:25;;;;;;;12.60;5.82;;;9.10;99.90;;;;;;5001555;28;19921;-66
2023/05/18 06:12:53;;;;;;;11.18;4.90;;;9.10;99.90;;;;;;4981920;28;20038;-66
2023/05/18 06:15:24;;;;;;;;;;;9.30;99.90;;;;;;5003900;28;20037;-65
2023/05/18 06:17:52;;;;;;;11.10;5.50;;;9.50;99.90;;;;;;5004207;28;20457;-66
2023/05/18 06:20:21;;;;;;;12.32;5.90;;;9.60;99.90;;;;;;4993293;28;20046;-65
2023/05/18 06:22:48;;;;;;;13.65;5.20;;;9.70;99.90;;;;;;5010666;28;20124;-65
2023/05/18 06:25:23;;;;;;;13.85;5.07;;;9.80;99.90;;;;;;4990508;28;20727;-68
2023/05/18 06:28:02;;;;;;;13.10;5.40;;;9.90;99.90;;;;;;4994761;28;20042;-64
2023/05/18 06:30:43;;;;;;;9.93;4.30;;;10.00;99.90;;;;;;4974018;28;20046;-67
2023/05/18 06:33:34;;;;;;;10.55;5.15;;;10.10;99.90;;;;;;4998495;28;20054;-67
2023/05/18 06:36:02;;;;;;;9.32;4.68;;;10.30;99.90;;;;;;4980374;28;20078;-66
2023/05/18 06:38:29;;;;;;;9.25;4.60;;;10.40;99.90;;;;;;5018932;28;20038;-67
2023/05/18 06:40:56;;;;;;;12.40;5.18;;;10.60;99.90;;;;;;5007042;28;20040;-66
2023/05/18 06:43:25;;;;;;;10.70;5.05;;;10.70;99.90;;;;;;5004076;28;20049;-66
2023/05/18 06:46:02;;;;;;;12.90;5.32;;;10.80;99.90;;;;;;5010348;28;20121;-66
2023/05/18 06:48:35;;;;;;;10.27;5.70;;;10.90;99.90;;;;;;4986065;28;20504;-66
2023/05/18 06:51:03;;;;;;;11.07;5.25;;;11.00;99.90;;;;;;5000980;28;20046;-66
2023/05/18 06:53:30;;;;;;;12.15;5.15;;;11.10;99.90;;;;;;5024273;28;20080;-66
2023/05/18 06:55:59;;;;;;;9.75;5.20;;;11.20;99.90;;;;;;5004287;28;20052;-66
2023/05/18 06:58:27;;;;;;;12.95;4.97;;;11.30;99.90;;;;;;5002398;28;20044;-67
2023/05/18 07:00:57;;;;;;;12.75;5.40;;;11.40;99.90;;;;;;5004169;28;20040;-67
2023/05/18 07:03:24;;;;;;;14.80;4.60;;;11.50;99.90;;;;;;5009826;28;20553;-66
2023/05/18 07:05:52;;;;;;;14.52;5.45;;;11.60;99.90;;;;;;5022163;28;20032;-66
2023/05/18 07:08:19;;;;;;;30.83;14.73;;;11.70;99.90;;;;;;5001044;28;20048;-66
2023/05/18 07:10:47;;;;;;;10.25;5.10;;;11.80;99.90;;;;;;5025368;28;20049;-67
2023/05/18 07:13:14;;;;;;;9.50;4.95;;;11.90;99.90;;;;;;5020303;28;20050;-66
2023/05/18 07:15:41;;;;;;;10.20;5.00;;;11.90;99.90;;;;;;5015888;28;20041;-66
2023/05/18 07:18:09;;;;;;;12.90;5.10;;;12.00;99.90;;;;;;4997099;28;20165;-67
2023/05/18 07:20:37;;;;;;;8.90;4.45;;;12.10;99.90;;;;;;5025478;28;20084;-66
2023/05/18 07:23:04;;;;;;;11.70;5.05;;;12.10;99.90;;;;;;5020700;28;20204;-66
2023/05/18 07:25:32;;;;;;;11.98;5.00;;;12.20;99.90;;;;;;5018403;28;20112;-66
2023/05/18 07:28:00;;;;;;;10.60;4.43;;;12.40;99.90;;;;;;5006848;28;20050;-67
2023/05/18 07:30:27;;;;;;;9.68;4.57;;;12.30;99.90;;;;;;5025060;28;20125;-66
2023/05/18 07:32:55;;;;;;;15.30;5.30;;;12.50;99.90;;;;;;5018497;28;20376;-66
2023/05/18 07:35:25;;;;;;;10.73;5.00;;;12.60;99.90;;;;;;5009604;28;20069;-66
2023/05/18 07:37:53;;;;;;;9.80;4.80;;;12.70;99.90;;;;;;5017279;28;20037;-66
2023/05/18 07:40:20;;;;;;;11.35;4.70;;;12.80;99.90;;;;;;5000999;28;20100;-67
2023/05/18 07:42:48;;;;;;;13.35;4.80;;;12.90;99.90;;;;;;5018754;28;20053;-67
2023/05/18 07:45:15;;;;;;;9.23;5.15;;;13.00;99.90;;;;;;5024752;28;20444;-63
2023/05/18 07:47:43;;;;;;;10.50;4.65;;;13.20;99.90;;;;;;5002179;28;20038;-66
2023/05/18 07:50:11;;;;;;;11.80;5.10;;;13.10;99.90;;;;;;4995944;28;20129;-66
2023/05/18 07:52:38;;;;;;;12.55;4.68;;;13.10;99.90;;;;;;4998047;28;20120;-67
2023/05/18 07:55:06;;;;;;;13.63;4.65;;;13.30;99.90;;;;;;5015458;28;20144;-67
2023/05/18 07:57:34;;;;;;;9.45;4.03;;;13.40;99.90;;;;;;4997840;28;20037;-67
2023/05/18 08:00:05;;;;;;;13.43;4.80;;;13.50;99.90;;;;;;5020940;28;20132;-67
2023/05/18 08:02:39;;;;;;;10.82;4.80;;;13.60;99.90;;;;;;5008145;28;20532;-67
2023/05/18 08:05:09;;;;;;;12.93;5.20;;;13.70;99.90;;;;;;5021542;28;20045;-67
2023/05/18 08:07:37;;;;;;;12.50;5.10;;;13.80;99.90;;;;;;5017283;28;20061;-67
2023/05/18 08:10:05;;;;;;;12.38;5.75;;;13.90;99.90;;;;;;5026583;28;20553;-67
2023/05/18 08:12:32;;;;;;;9.63;4.90;;;14.00;99.90;;;;;;5016005;28;20932;-67
2023/05/18 08:15:00;;;;;;;13.63;5.00;;;14.00;99.90;;;;;;5014891;28;20145;-67
2023/05/18 08:17:27;;;;;;;14.05;5.32;;;14.10;99.90;;;;;;5005787;28;20076;-67
2023/05/18 08:19:55;;;;;;;17.27;4.65;;;14.20;99.90;;;;;;5009252;28;20052;-67
2023/05/18 08:22:23;;;;;;;8.70;4.75;;;14.30;99.90;;;;;;5006209;28;20061;-67
2023/05/18 08:24:50;;;;;;;9.73;4.60;;;14.30;99.90;;;;;;5012657;28;20477;-67
2023/05/18 08:27:18;;;;;;;6.22;4.78;;;14.50;99.90;;;;;;5009250;28;20046;-67
2023/05/18 08:29:46;;;;;;;9.05;4.78;;;14.50;99.90;;;;;;5009703;28;20034;-67
2023/05/18 08:32:13;;;;;;;11.35;4.82;;;14.60;99.90;;;;;;5009394;28;20050;-67
2023/05/18 08:34:41;;;;;;;11.80;5.05;;;14.80;99.90;;;;;;5010494;28;20052;-64
2023/05/18 08:37:08;;;;;;;12.73;4.78;;;15.00;99.90;;;;;;5012690;28;20053;-66
2023/05/18 08:39:36;;;;;;;13.05;5.10;;;15.10;99.90;;;;;;5017917;28;20070;-67
2023/05/18 08:42:18;;;;;;;13.20;5.18;;;15.40;99.90;;;;;;5004190;28;20460;-64
2023/05/18 08:44:51;;;;;;;13.45;4.90;;;15.40;99.90;;;;;;4994769;28;20048;-68
2023/05/18 08:47:24;;;;;;;8.15;5.07;;;15.70;99.90;;;;;;5012081;28;20057;-66
2023/05/18 08:49:56;;;;;;;9.57;4.85;;;16.10;99.90;;;;;;5015920;28;20061;-66
2023/05/18 08:52:27;;;;;;;9.40;4.43;;;16.60;99.90;;;;;;5019610;28;20044;-66
2023/05/18 08:54:56;;;;;;;8.75;4.93;;;17.00;99.90;;;;;;5009985;28;20577;-66
2023/05/18 08:57:23;;;;;;;11.48;4.72;;;17.30;99.90;;;;;;5016016;28;20050;-66
2023/05/18 08:59:53;;;;;;;10.77;4.03;;;17.60;99.90;;;;;;5011878;28;20556;-67
2023/05/18 09:02:21;;;;;;;12.68;4.65;;;17.90;99.90;;;;;;5013783;28;20565;-63
2023/05/18 09:04:49;;;;;;;12.75;5.70;;;17.70;99.90;;;;;;5019681;28;20153;-66
2023/05/18 09:07:18;;;;;;;12.85;6.18;;;17.90;99.90;;;;;;5014441;28;20133;-66
2023/05/18 09:09:46;;;;;;;10.00;5.05;;;18.10;99.90;;;;;;4995369;28;20065;-67
2023/05/18 09:12:16;;;;;;;9.82;4.90;;;18.20;99.90;;;;;;4993864;28;20286;-66
2023/05/18 09:14:45;;;;;;;12.15;5.55;;;18.50;99.90;;;;;;5015731;28;20066;-67
2023/05/18 09:17:13;;;;;;;10.57;4.78;;;18.50;99.90;;;;;;5015971;28;20133;-68
2023/05/18 09:19:40;;;;;;;11.65;5.13;;;18.80;99.90;;;;;;5011749;28;20046;-68
2023/05/18 09:22:08;;;;;;;11.10;5.13;;;18.90;98.60;;;;;;5019852;28;20128;-68
2023/05/18 09:24:36;;;;;;;11.80;5.15;;;19.10;98.60;;;;;;5021996;28;20524;-67
2023/05/18 09:27:05;;;;;;;10.00;4.97;;;19.10;98.80;;;;;;5030871;28;20042;-65
2023/05/18 09:29:32;;;;;;;9.25;4.57;;;19.30;97.10;;;;;;5019809;28;20041;-66
2023/05/18 09:32:07;;;;;;;9.85;4.65;;;19.60;95.20;;;;;;5003242;28;20080;-64
2023/05/18 09:34:44;;;;;;;8.30;4.53;;;19.20;94.30;;;;;;4994816;28;20050;-63
2023/05/18 09:37:18;;;;;;;9.13;5.38;;;18.90;94.60;;;;;;5018290;28;20061;-66
2023/05/18 09:40:05;;;;;;;10.95;4.82;;;19.20;94.70;;;;;;5020106;28;20474;-68
2023/05/18 09:42:38;;;;;;;8.95;5.13;;;19.90;94.50;;;;;;5004985;28;20362;-68
2023/05/18 09:45:17;;;;;;;9.60;4.97;;;20.30;94.60;;;;;;5017802;28;20144;-68
2023/05/18 09:47:45;;;;;;;11.93;5.53;;;20.00;94.00;;;;;;5007772;28;20525;-65
2023/05/18 09:50:13;;;;;;;8.10;5.32;;;20.40;93.00;;;;;;5007109;28;20058;-67
2023/05/18 09:52:44;;;;;;;9.63;5.95;;;20.50;91.70;;;;;;5010633;28;20148;-67
2023/05/18 09:55:14;;;;;;;11.15;5.72;;;20.60;91.30;;;;;;5008884;28;20692;-63
2023/05/18 09:57:43;;;;;;;8.93;5.63;;;20.80;90.80;;;;;;5010947;28;20042;-65
2023/05/18 10:00:12;;;;;;;10.65;5.95;;;20.50;90.50;;;;;;4998893;28;20493;-67
2023/05/18 10:02:42;;;;;;;11.02;6.22;;;20.40;90.20;;;;;;5015099;28;20056;-67
2023/05/18 10:05:26;;;;;;;10.05;5.60;;;20.60;90.30;;;;;;5018991;28;20088;-64
2023/05/18 10:07:54;;;;;;;11.45;6.53;;;20.40;89.50;;;;;;5013901;28;20042;-67
2023/05/18 10:10:24;;;;;;;17.00;10.40;;;20.70;90.10;;;;;;5007254;28;20429;-67
2023/05/18 10:12:53;;;;;;;11.38;6.25;;;21.10;90.30;;;;;;5008790;28;20077;-70
2023/05/18 10:15:22;;;;;;;9.68;4.78;;;21.30;89.00;;;;;;5006255;28;20417;-67
2023/05/18 10:17:55;;;;;;;10.98;5.65;;;21.40;87.50;;;;;;5011732;28;20076;-67
2023/05/18 10:20:25;;;;;;;9.55;6.45;;;21.60;86.10;;;;;;5017132;28;20413;-67
2023/05/18 10:22:55;;;;;;;9.88;5.90;;;21.80;86.10;;;;;;5010371;28;20064;-66
2023/05/18 10:25:25;;;;;;;10.18;5.38;;;21.90;85.20;;;;;;5010689;28;20041;-65
2023/05/18 10:28:03;;;;;;;8.82;5.00;;;21.90;85.60;;;;;;5009619;28;20069;-67
2023/05/18 10:30:32;;;;;;;8.10;5.60;;;21.70;84.30;;;;;;5009451;28;20049;-67
2023/05/18 10:33:01;;;;;;;11.02;5.25;;;21.90;84.00;;;;;;5010414;28;20410;-67
2023/05/18 10:35:34;;;;;;;9.02;5.57;;;22.00;82.30;;;;;;5014995;28;20041;-68
2023/05/18 10:38:04;;;;;;;13.82;7.55;;;21.80;83.20;;;;;;4995420;28;20049;-68
2023/05/18 10:40:34;;;;;;;16.92;8.48;;;21.70;84.60;;;;;;5020141;28;20105;-67
2023/05/18 10:43:05;;;;;;;14.20;9.13;;;21.50;84.10;;;;;;4992932;28;20045;-68
2023/05/18 10:45:34;;;;;;;10.65;6.57;;;21.30;84.20;;;;;;5009619;28;20449;-68
2023/05/18 10:48:03;;;;;;;10.55;5.45;;;21.20;84.40;;;;;;5006173;28;20045;-67
2023/05/18 10:50:31;;;;;;;10.13;5.20;;;21.40;84.30;;;;;;5005560;28;20140;-68
2023/05/18 10:52:59;;;;;;;14.02;8.70;;;21.90;83.90;;;;;;5011214;28;20458;-68
2023/05/18 10:55:28;;;;;;;12.32;6.60;;;22.10;82.70;;;;;;5009273;28;20419;-68
2023/05/18 10:58:06;;;;;;;23.52;12.75;;;22.20;80.50;;;;;;5015584;28;20485;-68
2023/05/18 11:00:35;;;;;;;12.20;7.90;;;21.90;81.10;;;;;;5010003;28;20056;-69
2023/05/18 11:03:06;;;;;;;14.80;7.43;;;22.20;81.50;;;;;;5016580;28;20080;-68
2023/05/18 11:05:34;;;;;;;11.07;5.68;;;22.30;81.80;;;;;;5019381;28;20049;-68
2023/05/18 11:08:04;;;;;;;6.78;4.90;;;22.60;81.40;;;;;;4996114;28;20433;-68
2023/05/18 11:10:42;;;;;;;11.57;5.47;;;22.40;82.10;;;;;;5008811;28;20038;-64
2023/05/18 11:13:10;;;;;;;9.60;5.60;;;22.40;77.60;;;;;;5008561;28;20073;-67
2023/05/18 11:15:52;;;;;;;10.80;5.70;;;22.60;76.80;;;;;;5010627;28;20176;-64
2023/05/18 11:18:25;;;;;;;11.88;5.30;;;22.40;76.90;;;;;;5022814;28;20161;-64
2023/05/18 11:20:53;;;;;;;12.30;5.85;;;22.80;76.50;;;;;;5011315;28;20104;-67
2023/05/18 11:23:22;;;;;;;10.65;5.78;;;22.90;76.90;;;;;;4995121;28;20092;-67
2023/05/18 11:25:51;;;;;;;10.32;5.63;;;23.30;76.50;;;;;;5009295;28;20097;-67
2023/05/18 11:28:21;;;;;;;12.65;6.72;;;22.90;76.60;;;;;;5009008;28;20057;-67
2023/05/18 11:30:49;;;;;;;10.45;6.30;;;23.10;77.00;;;;;;5004325;28;20034;-67
2023/05/18 11:33:20;;;;;;;8.05;6.15;;;23.10;75.80;;;;;;4995455;28;20073;-67
2023/05/18 11:35:55;;;;;;;10.30;5.47;;;22.60;76.00;;;;;;5029253;28;20033;-68
2023/05/18 11:38:43;;;;;;;10.93;5.07;;;23.30;74.70;;;;;;4991037;28;20126;-66
2023/05/18 11:41:28;;;;;;;8.88;5.85;;;23.50;71.90;;;;;;4993361;28;20100;-68
2023/05/18 11:44:11;;;;;;;9.27;5.38;;;24.10;71.60;;;;;;5009868;28;20049;-65
2023/05/18 11:47:02;;;;;;;10.77;6.05;;;24.10;69.80;;;;;;5010147;28;20050;-68
2023/05/18 11:49:36;;;;;;;10.55;5.65;;;24.00;70.60;;;;;;5008692;28;20050;-67
2023/05/18 11:52:06;;;;;;;9.98;5.75;;;23.80;69.40;;;;;;5008140;28;20081;-64
2023/05/18 11:54:37;;;;;;;10.02;5.82;;;23.90;69.30;;;;;;5009189;28;20856;-68
2023/05/18 11:57:05;;;;;;;11.27;5.93;;;24.50;70.10;;;;;;5016147;28;20046;-67
2023/05/18 11:59:37;;;;;;;9.55;5.57;;;24.40;69.60;;;;;;5018112;28;20076;-68
2023/05/18 12:02:06;;;;;;;9.15;5.03;;;24.50;66.40;;;;;;5017429;28;20113;-68
2023/05/18 12:04:35;;;;;;;11.30;5.38;;;24.80;67.00;;;;;;5017260;28;20119;-67
2023/05/18 12:07:05;;;;;;;9.57;6.10;;;25.00;67.80;;;;;;5019326;28;20037;-67
2023/05/18 12:09:32;;;;;;;9.95;5.20;;;25.30;66.10;;;;;;5012782;28;20064;-67
2023/05/18 12:12:00;;;;;;;13.65;5.20;;;25.90;66.40;;;;;;5016145;28;20137;-68
2023/05/18 12:14:29;;;;;;;12.63;5.97;;;26.00;65.90;;;;;;5015276;28;20045;-68
2023/05/18 12:16:57;;;;;;;9.52;6.20;;;25.90;65.70;;;;;;5020955;28;20472;-68
2023/05/18 12:19:26;;;;;;;8.85;5.35;;;25.80;65.80;;;;;;5012328;28;20042;-69
2023/05/18 12:21:54;;;;;;;10.10;5.47;;;26.20;64.10;;;;;;5020512;28;20049;-67
2023/05/18 12:24:23;;;;;;;13.48;5.70;;;26.30;63.20;;;;;;5010683;28;20035;-68
2023/05/18 12:26:51;;;;;;;8.00;5.97;;;26.70;62.30;;;;;;5015060;28;20045;-67
2023/05/18 12:29:20;;;;;;;10.75;6.15;;;26.50;63.20;;;;;;5013700;28;20437;-66
2023/05/18 12:31:48;;;;;;;11.00;6.05;;;26.70;62.90;;;;;;5018139;28;20030;-64
2023/05/18 12:34:15;;;;;;;9.57;5.50;;;26.90;60.90;;;;;;5016827;28;20046;-64
2023/05/18 12:36:53;;;;;;;9.00;5.38;;;26.40;60.40;;;;;;5007781;28;20037;-63
2023/05/18 12:39:21;;;;;;;8.13;5.30;;;26.60;59.90;;;;;;5008934;28;20057;-66
2023/05/18 12:41:48;;;;;;;8.85;5.20;;;27.10;59.60;;;;;;5015951;28;20029;-68
2023/05/18 12:44:16;;;;;;;9.63;5.97;;;27.60;59.30;;;;;;5026269;28;20141;-64
2023/05/18 12:46:43;;;;;;;11.93;6.20;;;27.20;59.30;;;;;;5024138;28;20539;-69
2023/05/18 12:49:11;;;;;;;9.25;5.15;;;27.50;58.70;;;;;;5017814;28;20076;-66
2023/05/18 12:51:38;;;;;;;8.23;5.18;;;26.80;58.60;;;;;;5022990;28;20038;-68
2023/05/18 12:54:07;;;;;;;8.93;4.47;;;26.80;58.50;;;;;;5021383;28;20042;-67
2023/05/18 12:56:50;;;;;;;9.18;5.20;;;27.10;58.70;;;;;;5012065;28;20113;-65
2023/05/18 12:59:18;;;;;;;7.70;5.10;;;27.70;58.00;;;;;;5009401;28;20132;-68
2023/05/18 13:01:46;;;;;;;7.95;5.13;;;27.70;57.60;;;;;;5012736;28;20524;-69